Terminal Aerodrome Forecast
Issued by NWS Denver/Boulder, CO

Home | Current Version | Previous Version | Text Only | Print | Product List | Glossary On
Versions: 1 2 3 4 5 6 7 8 9 10 11 12 13 14 15 16 17 18 19 20 21 22 23 24 25 26 27 28 29 30 31 32 33 34 35 36 37 38 39 40 41 42 43 44 45 46 47 48 49 50
000
FTUS45 KBOU 241817 AAA
TAFDEN
TAF AMD
KDEN 241817Z 2418/2524 28028G38KT P6SM FEW070
     FM242200 29020G28KT P6SM FEW200
     FM242300 28013KT P6SM FEW200
     FM250100 28007KT P6SM SCT200
     FM250500 21010KT P6SM BKN200
     FM251500 24008KT P6SM SCT100 BKN200
     FM251900 27013KT P6SM SCT100 BKN200=

USA.gov is the U.S. government's official web portal to all federal, state and local government web resources and services.